Time;durP1;ratioP1;P1;durP2;ratioP2;P2;SDS_P1;SDS_P2;PMS_P1;PMS_P2;Temp;Humidity;BMP_temperature;BMP_pressure;BME280_temperature;BME280_humidity;BME280_pressure;Samples;Min_cycle;Max_cycle;Signal;HPM_P1;HPM_P2
2022/05/23 00:00:18;;;;;;;6.15;2.60;;;;;;;;;;4971037;28;22341;-67
2022/05/23 00:02:44;;;;;;;7.57;2.50;;;;;;;;;;4971128;28;20042;-67
2022/05/23 00:05:10;;;;;;;9.35;2.88;;;;;;;;;;4952008;28;21191;-67
2022/05/23 00:07:37;;;;;;;9.50;2.80;;;;;;;;;;4974288;28;20153;-67
2022/05/23 00:10:04;;;;;;;6.00;2.80;;;;;;;;;;4971264;28;20034;-67
2022/05/23 00:12:29;;;;;;;8.73;3.10;;;;;;;;;;4970187;28;20052;-67
2022/05/23 00:14:57;;;;;;;6.40;2.63;;;;;;;;;;4968202;28;20057;-67
2022/05/23 00:17:22;;;;;;;10.23;2.92;;;;;;;;;;4971800;28;20439;-67
2022/05/23 00:19:48;;;;;;;8.80;2.70;;;;;;;;;;4969390;28;20121;-67
2022/05/23 00:22:14;;;;;;;7.85;3.30;;;;;;;;;;4969760;28;20045;-67
2022/05/23 00:24:41;;;;;;;10.98;3.17;;;;;;;;;;4972116;28;20033;-67
2022/05/23 00:27:08;;;;;;;6.32;2.90;;;;;;;;;;4969318;28;20030;-67
2022/05/23 00:29:34;;;;;;;8.13;3.00;;;;;;;;;;4970328;28;20053;-67
2022/05/23 00:37:27;;;;;;;10.85;3.67;;;;;;;;;;4971309;28;20038;-67
2022/05/23 00:39:55;;;;;;;8.23;2.85;;;;;;;;;;4968408;28;20136;-67
2022/05/23 00:45:08;;;;;;;9.25;3.05;;;;;;;;;;4973571;28;20038;-66
2022/05/23 00:47:33;;;;;;;8.77;3.00;;;;;;;;;;4974437;28;20942;-66
2022/05/23 00:49:59;;;;;;;8.80;3.05;;;;;;;;;;4960553;28;20068;-66
2022/05/23 00:52:27;;;;;;;9.88;3.03;;;;;;;;;;4969539;28;20041;-67
2022/05/23 00:54:54;;;;;;;5.60;2.88;;;;;;;;;;4975042;28;20034;-67
2022/05/23 00:57:21;;;;;;;7.65;3.05;;;;;;;;;;4981574;28;20046;-67
2022/05/23 00:59:47;;;;;;;7.00;2.70;;;;;;;;;;4972602;28;20809;-67
2022/05/23 01:02:13;;;;;;;7.28;2.90;;;;;;;;;;4974755;28;20116;-67
2022/05/23 01:04:39;;;;;;;9.30;2.90;;;;;;;;;;4973334;28;20106;-67
2022/05/23 01:07:04;;;;;;;11.00;2.90;;;;;;;;;;4977324;28;20058;-67
2022/05/23 01:09:30;;;;;;;7.93;2.92;;;;;;;;;;4970812;28;20034;-67
2022/05/23 01:11:56;;;;;;;6.20;2.65;;;;;;;;;;4974123;28;20878;-67
2022/05/23 01:14:22;;;;;;;8.95;2.97;;;;;;;;;;4974410;28;20041;-67
2022/05/23 01:16:50;;;;;;;10.02;3.25;;;;;;;;;;4951484;28;22277;-67
2022/05/23 01:19:17;;;;;;;6.68;2.97;;;;;;;;;;4974881;28;20061;-67
2022/05/23 01:21:48;;;;;;;7.20;2.72;;;;;;;;;;4972754;28;20037;-67
2022/05/23 01:24:16;;;;;;;6.47;2.75;;;;;;;;;;4973029;28;20053;-67
2022/05/23 01:26:44;;;;;;;8.20;3.20;;;;;;;;;;4976707;28;20783;-68
2022/05/23 01:29:12;;;;;;;9.80;3.10;;;;;;;;;;4973872;28;20930;-67
2022/05/23 01:31:38;;;;;;;9.57;2.97;;;;;;;;;;4972834;28;20029;-67
2022/05/23 01:34:06;;;;;;;6.80;3.22;;;;;;;;;;4973823;28;21104;-67
2022/05/23 01:36:33;;;;;;;8.20;3.25;;;;;;;;;;4971551;28;20688;-67
2022/05/23 01:39:01;;;;;;;9.80;3.25;;;;;;;;;;4973552;28;20133;-67
2022/05/23 01:41:26;;;;;;;7.95;3.08;;;;;;;;;;4959903;28;20525;-67
2022/05/23 01:43:53;;;;;;;7.43;2.88;;;;;;;;;;4965515;28;20033;-66
2022/05/23 01:46:21;;;;;;;11.25;3.47;;;;;;;;;;4969966;28;20038;-67
2022/05/23 01:48:48;;;;;;;10.80;3.10;;;;;;;;;;4971968;28;20042;-67
2022/05/23 01:51:14;;;;;;;8.20;3.40;;;;;;;;;;4955572;28;20073;-66
2022/05/23 01:53:39;;;;;;;9.70;3.33;;;;;;;;;;4987904;28;20125;-66
2022/05/23 01:56:05;;;;;;;8.23;3.30;;;;;;;;;;4971616;28;20112;-66
2022/05/23 02:01:14;;;;;;;8.00;3.35;;;;;;;;;;4975674;28;20037;-66
2022/05/23 02:03:43;;;;;;;7.63;3.45;;;;;;;;;;4974516;28;20108;-66
2022/05/23 02:06:10;;;;;;;10.00;3.97;;;;;;;;;;4973893;28;20692;-66
2022/05/23 02:08:38;;;;;;;10.50;4.38;;;;;;;;;;4970362;28;20286;-66
2022/05/23 02:11:07;;;;;;;9.98;4.53;;;;;;;;;;4972398;28;20034;-66
2022/05/23 02:13:33;;;;;;;11.07;4.90;;;;;;;;;;4973258;28;20149;-66
2022/05/23 02:15:58;;;;;;;12.48;5.35;;;;;;;;;;4973500;28;25152;-66
2022/05/23 02:18:26;;;;;;;13.55;5.38;;;;;;;;;;4963466;28;20041;-66
2022/05/23 02:20:52;;;;;;;13.07;5.55;;;;;;;;;;4972535;28;20030;-66
2022/05/23 02:23:17;;;;;;;11.77;5.30;;;;;;;;;;4972380;28;20905;-66
2022/05/23 02:25:45;;;;;;;10.77;5.15;;;;;;;;;;4972892;28;20037;-66
2022/05/23 02:28:14;;;;;;;12.73;5.13;;;;;;;;;;4971708;28;20049;-66
2022/05/23 02:30:40;;;;;;;12.10;5.63;;;;;;;;;;4974674;28;20077;-66
2022/05/23 02:33:05;;;;;;;13.60;6.03;;;;;;;;;;4944925;28;20088;-67
2022/05/23 02:35:30;;;;;;;14.05;5.80;;;;;;;;;;4966584;28;20745;-66
2022/05/23 02:37:56;;;;;;;13.18;5.35;;;;;;;;;;4973300;28;20050;-66
2022/05/23 02:40:22;;;;;;;9.43;4.80;;;;;;;;;;4966985;28;20111;-66
2022/05/23 02:42:47;;;;;;;11.30;5.07;;;;;;;;;;4972252;28;20088;-66
2022/05/23 02:45:13;;;;;;;9.90;4.32;;;;;;;;;;4971189;28;21260;-67
2022/05/23 02:47:39;;;;;;;10.95;4.90;;;;;;;;;;4971192;28;20038;-66
2022/05/23 02:50:06;;;;;;;8.65;4.20;;;;;;;;;;4972536;28;20084;-66
2022/05/23 02:52:31;;;;;;;7.90;4.60;;;;;;;;;;4971905;28;20045;-65
2022/05/23 02:54:57;;;;;;;10.05;4.20;;;;;;;;;;4971969;28;20037;-66
2022/05/23 02:57:22;;;;;;;8.13;3.85;;;;;;;;;;4968423;28;20046;-66
2022/05/23 02:59:48;;;;;;;10.18;3.38;;;;;;;;;;4970475;28;20030;-66
2022/05/23 03:04:57;;;;;;;7.13;3.75;;;;;;;;;;4972978;28;20033;-66
2022/05/23 03:07:25;;;;;;;9.73;3.70;;;;;;;;;;4968978;28;20533;-66
2022/05/23 03:09:50;;;;;;;11.77;4.55;;;;;;;;;;4971745;28;20037;-66
2022/05/23 03:12:20;;;;;;;11.50;4.80;;;;;;;;;;4974583;28;20060;-66
2022/05/23 03:14:48;;;;;;;8.75;4.50;;;;;;;;;;4976158;28;20044;-66
2022/05/23 03:17:13;;;;;;;11.80;4.40;;;;;;;;;;4971653;28;20041;-66
2022/05/23 03:19:39;;;;;;;10.13;3.67;;;;;;;;;;4938299;28;20044;-66
2022/05/23 03:27:39;;;;;;;8.68;3.67;;;;;;;;;;4972196;28;20136;-66
2022/05/23 03:30:05;;;;;;;8.57;4.80;;;;;;;;;;4969190;28;20051;-66
2022/05/23 03:32:31;;;;;;;10.82;5.07;;;;;;;;;;4971864;28;21201;-67
2022/05/23 03:34:59;;;;;;;12.07;5.60;;;;;;;;;;4972278;28;20072;-65
2022/05/23 03:37:25;;;;;;;9.13;4.00;;;;;;;;;;4980007;28;20096;-66
2022/05/23 03:39:52;;;;;;;8.40;4.57;;;;;;;;;;4971752;28;20259;-66
2022/05/23 03:42:20;;;;;;;8.38;3.60;;;;;;;;;;4968938;28;20068;-67
2022/05/23 03:44:45;;;;;;;8.23;3.30;;;;;;;;;;4969911;28;20049;-67
2022/05/23 03:47:13;;;;;;;10.40;3.88;;;;;;;;;;4971279;28;20115;-67
2022/05/23 03:49:38;;;;;;;8.93;3.65;;;;;;;;;;4970926;28;20029;-67
2022/05/23 03:52:04;;;;;;;8.15;3.85;;;;;;;;;;4972460;28;20112;-66
2022/05/23 03:54:29;;;;;;;8.82;4.30;;;;;;;;;;4958346;28;20037;-66
2022/05/23 03:56:57;;;;;;;10.85;4.47;;;;;;;;;;4971024;28;20030;-67
2022/05/23 03:59:23;;;;;;;10.43;4.32;;;;;;;;;;4969640;28;20808;-66
2022/05/23 04:01:48;;;;;;;11.73;4.38;;;;;;;;;;4970723;28;20042;-66
2022/05/23 04:04:13;;;;;;;7.95;4.07;;;;;;;;;;4967233;28;20072;-66
2022/05/23 04:06:40;;;;;;;8.57;3.95;;;;;;;;;;4969008;28;20050;-67
2022/05/23 04:09:07;;;;;;;8.20;4.10;;;;;;;;;;4970915;28;20037;-67
2022/05/23 04:11:32;;;;;;;7.35;4.00;;;;;;;;;;4985342;28;20149;-66
2022/05/23 04:14:00;;;;;;;10.82;4.50;;;;;;;;;;4988001;28;20072;-66
2022/05/23 04:16:29;;;;;;;10.32;4.00;;;;;;;;;;4995020;28;20145;-67
2022/05/23 04:18:55;;;;;;;11.80;4.60;;;;;;;;;;4971362;28;20030;-67
2022/05/23 04:21:20;;;;;;;10.88;4.28;;;;;;;;;;4976110;28;20084;-66
2022/05/23 04:23:46;;;;;;;9.02;4.47;;;;;;;;;;4970992;28;20041;-67
2022/05/23 04:26:12;;;;;;;12.55;5.45;;;;;;;;;;4968000;28;20021;-67
2022/05/23 04:28:39;;;;;;;11.52;4.75;;;;;;;;;;4983710;28;20165;-67
2022/05/23 04:31:05;;;;;;;11.07;4.13;;;;;;;;;;4974455;28;20041;-67
2022/05/23 04:36:14;;;;;;;11.57;5.13;;;;;;;;;;4974030;28;20045;-68
2022/05/23 04:38:40;;;;;;;9.88;4.45;;;;;;;;;;4967099;28;20054;-67
2022/05/23 04:41:06;;;;;;;10.40;4.32;;;;;;;;;;4973210;28;20050;-68
2022/05/23 04:43:31;;;;;;;9.25;4.20;;;;;;;;;;4967315;28;20061;-67
2022/05/23 04:45:57;;;;;;;11.13;4.25;;;;;;;;;;4972875;28;20037;-68
2022/05/23 04:51:20;;;;;;;10.18;4.28;;;;;;;;;;4958688;28;20951;-68
2022/05/23 04:53:46;;;;;;;10.10;4.40;;;;;;;;;;4993281;28;20045;-68
2022/05/23 04:56:11;;;;;;;9.13;4.65;;;;;;;;;;4994377;28;20034;-70
2022/05/23 04:58:37;;;;;;;10.15;4.15;;;;;;;;;;4995547;28;20072;-68
2022/05/23 05:01:03;;;;;;;10.27;4.40;;;;;;;;;;5005242;28;20095;-67
2022/05/23 05:03:28;;;;;;;9.68;4.85;;;;;;;;;;4992989;28;20178;-68
2022/05/23 05:05:53;;;;;;;8.95;4.10;;;;;;;;;;4992406;28;20033;-67
2022/05/23 05:08:18;;;;;;;10.02;4.50;;;;;;;;;;5008312;28;20037;-67
2022/05/23 05:10:46;;;;;;;11.23;4.95;;;;;;;;;;4990699;28;20147;-67
2022/05/23 05:13:11;;;;;;;9.82;4.82;;;;;;;;;;4994606;28;20048;-67
2022/05/23 05:15:37;;;;;;;12.02;4.95;;;;;;;;;;4990432;28;20034;-67
2022/05/23 05:18:03;;;;;;;10.52;4.63;;;;;;;;;;4993541;28;20033;-68
2022/05/23 05:20:29;;;;;;;11.80;5.18;;;;;;;;;;4991300;28;20036;-67
2022/05/23 05:22:54;;;;;;;11.38;4.50;;;;;;;;;;4992175;28;20850;-67
2022/05/23 05:25:19;;;;;;;10.60;4.97;;;;;;;;;;4989667;28;20081;-66
2022/05/23 05:27:45;;;;;;;12.55;5.32;;;;;;;;;;4993126;28;20040;-66
2022/05/23 05:30:19;;;;;;;8.63;4.90;;;;;;;;;;4990345;28;22269;-67
2022/05/23 05:32:47;;;;;;;10.85;5.38;;;;;;;;;;4991181;28;20044;-68
2022/05/23 05:35:12;;;;;;;9.60;5.47;;;;;;;;;;4988706;28;20804;-67
2022/05/23 05:37:45;;;;;;;9.30;5.18;;;;;;;;;;5002110;28;20030;-67
2022/05/23 05:40:14;;;;;;;9.35;5.78;;;;;;;;;;4993964;28;20573;-67
2022/05/23 05:42:46;;;;;;;13.82;5.72;;;;;;;;;;5006672;28;20127;-67
2022/05/23 05:45:16;;;;;;;12.23;5.45;;;;;;;;;;4989989;28;20040;-68
2022/05/23 05:47:42;;;;;;;11.23;5.60;;;;;;;;;;4988100;28;20595;-68
2022/05/23 05:50:12;;;;;;;12.27;5.78;;;;;;;;;;4984412;28;20065;-67
2022/05/23 05:52:37;;;;;;;16.10;5.90;;;;;;;;;;4974306;28;21281;-68
2022/05/23 05:55:04;;;;;;;12.20;6.15;;;;;;;;;;4972396;28;20040;-68
2022/05/23 05:57:30;;;;;;;15.07;5.90;;;;;;;;;;4971542;28;20601;-68
2022/05/23 05:59:55;;;;;;;11.20;5.57;;;;;;;;;;4970808;28;20030;-68
2022/05/23 06:02:22;;;;;;;11.05;5.57;;;;;;;;;;4971389;28;21201;-68
2022/05/23 06:04:48;;;;;;;12.32;6.18;;;;;;;;;;4968193;28;20026;-67
2022/05/23 06:12:56;;;;;;;13.50;5.82;;;;;;;;;;4991649;28;20796;-71
2022/05/23 06:15:21;;;;;;;12.32;5.88;;;;;;;;;;4986917;28;20985;-72
2022/05/23 06:17:47;;;;;;;10.93;5.60;;;;;;;;;;4992982;28;20029;-74
2022/05/23 06:20:14;;;;;;;17.40;6.60;;;;;;;;;;4992747;28;20746;-75
2022/05/23 06:22:39;;;;;;;11.40;6.13;;;;;;;;;;5003588;28;20048;-74
2022/05/23 06:25:05;;;;;;;14.25;5.95;;;;;;;;;;4990600;28;20033;-74
2022/05/23 06:27:31;;;;;;;12.50;6.00;;;;;;;;;;4990276;28;20046;-74
2022/05/23 06:29:56;;;;;;;17.23;6.70;;;;;;;;;;4991074;28;20040;-75
2022/05/23 06:32:24;;;;;;;13.25;7.00;;;;;;;;;;4991504;28;20045;-69
2022/05/23 06:34:52;;;;;;;14.45;7.28;;;;;;;;;;4989827;28;20038;-69
2022/05/23 06:37:20;;;;;;;15.98;7.28;;;;;;;;;;4991731;28;20044;-69
2022/05/23 06:39:46;;;;;;;17.95;7.90;;;;;;;;;;4989231;28;20037;-69
2022/05/23 06:42:11;;;;;;;14.07;8.10;;;;;;;;;;4987565;28;20166;-67
2022/05/23 06:44:36;;;;;;;15.38;6.95;;;;;;;;;;4986340;28;20076;-68
2022/05/23 06:47:02;;;;;;;14.23;7.00;;;;;;;;;;4987944;28;21811;-68
2022/05/23 06:49:27;;;;;;;13.20;6.65;;;;;;;;;;4988894;28;20028;-68
2022/05/23 06:51:53;;;;;;;16.92;7.60;;;;;;;;;;4990285;28;20091;-67
2022/05/23 06:54:19;;;;;;;11.43;7.20;;;;;;;;;;4987025;28;20068;-68
2022/05/23 06:56:45;;;;;;;16.70;7.65;;;;;;;;;;4988680;28;20040;-68
2022/05/23 06:59:11;;;;;;;16.33;7.70;;;;;;;;;;4988639;28;20581;-68
2022/05/23 07:01:36;;;;;;;15.02;7.50;;;;;;;;;;4979387;28;21929;-68
2022/05/23 07:04:01;;;;;;;15.05;7.63;;;;;;;;;;4967613;28;20033;-72
2022/05/23 07:12:19;;;;;;;13.43;8.35;;;;;;;;;;4966064;28;20136;-71
2022/05/23 07:12:19;;;;;;;12.77;8.10;;;;;;;;;;4973299;28;21934;-71
2022/05/23 07:14:45;;;;;;;16.92;8.30;;;;;;;;;;4978162;28;20589;-71
2022/05/23 07:17:10;;;;;;;13.10;8.10;;;;;;;;;;4973768;28;20042;-72
2022/05/23 07:19:36;;;;;;;16.23;7.90;;;;;;;;;;4972479;28;20072;-71
2022/05/23 07:22:03;;;;;;;13.10;7.50;;;;;;;;;;4972686;28;20053;-71
2022/05/23 07:24:31;;;;;;;15.80;7.30;;;;;;;;;;4971750;28;20034;-71
2022/05/23 07:26:57;;;;;;;15.38;8.43;;;;;;;;;;4972971;28;20133;-71
2022/05/23 07:29:24;;;;;;;14.45;8.15;;;;;;;;;;4970262;28;20739;-73
2022/05/23 07:31:53;;;;;;;16.42;8.20;;;;;;;;;;4983944;28;20057;-70
2022/05/23 07:34:18;;;;;;;17.33;8.32;;;;;;;;;;4970510;28;20045;-70
2022/05/23 07:36:44;;;;;;;15.90;7.78;;;;;;;;;;4963853;28;20128;-71
2022/05/23 07:39:10;;;;;;;16.70;8.00;;;;;;;;;;4973410;28;20042;-73
2022/05/23 07:41:35;;;;;;;16.38;8.00;;;;;;;;;;4970783;28;20115;-72
2022/05/23 07:44:01;;;;;;;17.45;8.85;;;;;;;;;;4963129;28;20033;-72
2022/05/23 07:46:26;;;;;;;19.00;9.25;;;;;;;;;;4969575;28;20036;-73
2022/05/23 07:48:52;;;;;;;19.73;10.05;;;;;;;;;;4968654;28;20050;-72
2022/05/23 07:51:20;;;;;;;17.98;11.30;;;;;;;;;;4968971;28;22334;-72
2022/05/23 08:01:58;;;;;;;17.52;11.05;;;;;;;;;;4972044;28;20793;-73
2022/05/23 08:04:23;;;;;;;14.55;8.68;;;;;;;;;;4973166;28;20125;-73
2022/05/23 08:06:48;;;;;;;14.10;8.60;;;;;;;;;;4992290;28;20493;-73
2022/05/23 08:09:14;;;;;;;16.58;10.05;;;;;;;;;;4993024;28;20566;-73
2022/05/23 08:11:40;;;;;;;18.33;9.80;;;;;;;;;;4993309;28;20048;-72
2022/05/23 08:14:06;;;;;;;19.52;9.43;;;;;;;;;;4990101;28;20044;-72
2022/05/23 08:16:31;;;;;;;16.08;10.73;;;;;;;;;;4987576;28;20196;-75
2022/05/23 08:18:58;;;;;;;18.48;10.70;;;;;;;;;;4987706;28;20375;-74
2022/05/23 08:21:24;;;;;;;19.33;11.50;;;;;;;;;;4990271;28;20554;-74
2022/05/23 08:23:50;;;;;;;16.17;10.02;;;;;;;;;;5002955;28;20033;-75
2022/05/23 08:26:15;;;;;;;16.25;10.60;;;;;;;;;;4987820;28;20064;-73
2022/05/23 08:28:41;;;;;;;16.38;9.68;;;;;;;;;;4988317;28;20095;-74
2022/05/23 08:31:08;;;;;;;17.15;8.80;;;;;;;;;;4984855;28;20725;-75
2022/05/23 08:33:34;;;;;;;18.17;10.52;;;;;;;;;;4990788;28;20486;-74
2022/05/23 08:35:59;;;;;;;18.30;10.70;;;;;;;;;;4987143;28;20033;-72
2022/05/23 08:38:24;;;;;;;16.38;11.55;;;;;;;;;;4992702;28;20037;-74
2022/05/23 08:40:53;;;;;;;16.90;10.95;;;;;;;;;;4986527;28;21232;-75
2022/05/23 08:43:25;;;;;;;15.85;10.20;;;;;;;;;;4986787;28;20050;-75
2022/05/23 08:45:55;;;;;;;14.90;9.55;;;;;;;;;;4995202;28;20048;-76
2022/05/23 08:48:28;;;;;;;12.55;8.30;;;;;;;;;;4987980;28;20061;-76
2022/05/23 08:50:59;;;;;;;14.68;8.52;;;;;;;;;;4990325;28;20033;-75
2022/05/23 08:53:45;;;;;;;14.13;7.55;;;;;;;;;;4993737;28;20207;-75
2022/05/23 08:56:19;;;;;;;14.82;8.18;;;;;;;;;;4991486;28;20126;-73
2022/05/23 08:58:55;;;;;;;11.60;7.40;;;;;;;;;;4990185;28;20042;-73
2022/05/23 09:01:27;;;;;;;13.50;7.25;;;;;;;;;;4964297;28;20034;-75
2022/05/23 09:04:10;;;;;;;11.20;6.88;;;;;;;;;;4972658;28;20095;-75
2022/05/23 09:06:42;;;;;;;11.15;6.38;;;;;;;;;;4963597;28;20035;-76
2022/05/23 09:09:10;;;;;;;14.52;7.15;;;;;;;;;;4971811;28;20925;-75
2022/05/23 09:11:42;;;;;;;13.13;7.20;;;;;;;;;;4969479;28;20041;-75
2022/05/23 09:14:09;;;;;;;15.82;7.35;;;;;;;;;;4969418;28;20057;-70
2022/05/23 09:16:44;;;;;;;12.15;7.03;;;;;;;;;;4964804;28;20223;-70
2022/05/23 09:19:28;;;;;;;11.32;6.57;;;;;;;;;;4963482;28;20165;-69
2022/05/23 09:22:13;;;;;;;13.57;6.88;;;;;;;;;;4991871;28;20029;-69
2022/05/23 09:24:41;;;;;;;10.82;6.82;;;;;;;;;;4973956;28;20038;-69
2022/05/23 09:27:12;;;;;;;13.63;7.60;;;;;;;;;;4966409;28;20038;-70
2022/05/23 09:29:38;;;;;;;15.43;8.40;;;;;;;;;;4967532;28;20052;-70
2022/05/23 09:32:08;;;;;;;11.57;7.95;;;;;;;;;;4955041;28;20045;-70
2022/05/23 09:34:43;;;;;;;14.13;8.68;;;;;;;;;;4965920;28;20073;-68
2022/05/23 09:37:16;;;;;;;10.95;8.02;;;;;;;;;;4999658;28;20060;-70
2022/05/23 09:39:51;;;;;;;13.32;8.40;;;;;;;;;;4988535;28;20850;-70
2022/05/23 09:48:06;;;;;;;12.70;8.23;;;;;;;;;;4987668;28;20033;-69
2022/05/23 09:50:37;;;;;;;11.90;8.20;;;;;;;;;;4977625;28;20033;-68
2022/05/23 09:53:03;;;;;;;12.75;8.43;;;;;;;;;;4990961;28;20052;-69
2022/05/23 09:55:33;;;;;;;13.38;8.40;;;;;;;;;;4975553;28;20118;-69
2022/05/23 09:58:00;;;;;;;14.35;8.90;;;;;;;;;;4970015;28;20038;-70
2022/05/23 10:00:25;;;;;;;16.88;9.13;;;;;;;;;;4981912;28;20045;-69
2022/05/23 10:03:00;;;;;;;13.60;8.50;;;;;;;;;;4969033;28;20082;-71
2022/05/23 10:05:31;;;;;;;15.13;9.10;;;;;;;;;;4970024;28;20046;-69
2022/05/23 10:07:59;;;;;;;12.85;7.95;;;;;;;;;;4968364;28;20470;-69
2022/05/23 10:10:26;;;;;;;15.15;8.95;;;;;;;;;;4983975;28;20136;-69
2022/05/23 10:13:09;;;;;;;15.60;9.45;;;;;;;;;;4979510;28;20962;-69
2022/05/23 10:15:43;;;;;;;18.40;11.30;;;;;;;;;;4969335;28;20133;-69
2022/05/23 10:18:10;;;;;;;15.02;12.05;;;;;;;;;;4969290;28;20059;-68
2022/05/23 10:20:35;;;;;;;17.80;12.15;;;;;;;;;;4968306;28;20327;-69
2022/05/23 10:23:13;;;;;;;18.80;13.10;;;;;;;;;;4972382;28;20136;-70
2022/05/23 10:25:41;;;;;;;17.05;13.57;;;;;;;;;;4967127;28;20034;-70
2022/05/23 10:28:20;;;;;;;17.73;13.25;;;;;;;;;;4968830;28;20041;-69
2022/05/23 10:30:53;;;;;;;15.68;13.00;;;;;;;;;;4968786;28;20170;-68
2022/05/23 10:33:19;;;;;;;16.75;12.95;;;;;;;;;;4957139;28;20515;-67
2022/05/23 10:35:44;;;;;;;17.35;11.98;;;;;;;;;;4958331;28;20113;-70
2022/05/23 10:44:00;;;;;;;16.08;12.65;;;;;;;;;;4988499;28;20345;-69
2022/05/23 10:46:27;;;;;;;20.00;13.90;;;;;;;;;;4972813;28;20569;-69
2022/05/23 10:48:57;;;;;;;17.42;14.18;;;;;;;;;;4969169;28;20034;-69
2022/05/23 10:51:42;;;;;;;18.40;14.88;;;;;;;;;;4949713;28;20498;-69
2022/05/23 10:54:13;;;;;;;19.75;14.82;;;;;;;;;;4955454;28;20145;-68
2022/05/23 10:56:38;;;;;;;20.73;15.25;;;;;;;;;;4969496;28;20045;-68
2022/05/23 10:59:07;;;;;;;21.20;16.30;;;;;;;;;;4968858;28;20351;-68
2022/05/23 11:01:35;;;;;;;21.40;16.17;;;;;;;;;;4966746;28;20747;-68
2022/05/23 11:04:09;;;;;;;21.23;16.85;;;;;;;;;;4965907;28;20056;-69
2022/05/23 11:06:53;;;;;;;24.08;17.48;;;;;;;;;;4968648;28;20033;-68
2022/05/23 11:09:27;;;;;;;21.55;17.02;;;;;;;;;;4969148;28;20051;-68
2022/05/23 11:11:53;;;;;;;21.75;17.98;;;;;;;;;;4969733;28;20650;-68
2022/05/23 11:14:38;;;;;;;23.48;18.63;;;;;;;;;;4968405;28;20564;-68
2022/05/23 11:17:03;;;;;;;24.83;17.90;;;;;;;;;;4971096;28;20761;-68
2022/05/23 11:19:34;;;;;;;23.83;18.15;;;;;;;;;;4968372;28;20061;-68
2022/05/23 11:21:59;;;;;;;26.55;18.05;;;;;;;;;;4969972;28;20061;-68
2022/05/23 11:24:29;;;;;;;23.20;17.13;;;;;;;;;;4967284;28;20152;-68
2022/05/23 11:33:41;;;;;;;22.95;17.23;;;;;;;;;;4970759;28;20033;-68
2022/05/23 11:35:40;;;;;;;24.02;17.45;;;;;;;;;;4960494;28;20030;-69
2022/05/23 11:38:08;;;;;;;23.30;16.88;;;;;;;;;;4969629;28;20038;-75
2022/05/23 11:40:37;;;;;;;20.05;16.20;;;;;;;;;;4969369;28;20034;-76
2022/05/23 11:43:07;;;;;;;19.58;16.33;;;;;;;;;;4982644;28;20053;-77
2022/05/23 11:48:39;;;;;;;21.02;16.35;;;;;;;;;;4993261;28;20045;-77
2022/05/23 11:51:18;;;;;;;23.30;16.73;;;;;;;;;;4986391;28;20568;-77
2022/05/23 11:54:03;;;;;;;23.25;17.98;;;;;;;;;;4986362;28;20048;-76
2022/05/23 11:56:35;;;;;;;25.17;18.95;;;;;;;;;;4989433;28;20954;-77
2022/05/23 11:59:03;;;;;;;22.98;17.30;;;;;;;;;;4994640;28;20220;-73
2022/05/23 12:01:29;;;;;;;25.88;19.67;;;;;;;;;;5011996;28;20075;-73
2022/05/23 12:04:00;;;;;;;22.05;19.17;;;;;;;;;;4991041;28;20029;-76
2022/05/23 12:06:25;;;;;;;22.52;19.67;;;;;;;;;;5001171;28;20115;-76
2022/05/23 12:08:57;;;;;;;25.70;19.80;;;;;;;;;;4993081;28;20045;-75
2022/05/23 12:11:22;;;;;;;26.35;20.05;;;;;;;;;;4990748;28;20045;-76
2022/05/23 12:13:51;;;;;;;26.95;20.40;;;;;;;;;;4988938;28;20864;-76
2022/05/23 12:16:26;;;;;;;23.45;20.50;;;;;;;;;;4986526;28;20053;-77
2022/05/23 12:19:11;;;;;;;25.05;19.38;;;;;;;;;;4994501;28;20083;-74
2022/05/23 12:21:39;;;;;;;24.98;19.67;;;;;;;;;;4989486;28;20037;-75
2022/05/23 12:24:23;;;;;;;25.48;19.98;;;;;;;;;;4991830;28;20040;-75
2022/05/23 12:26:54;;;;;;;24.77;19.65;;;;;;;;;;4990460;28;20134;-74
2022/05/23 12:29:35;;;;;;;23.15;18.70;;;;;;;;;;4977625;28;20042;-73
2022/05/23 12:32:06;;;;;;;21.92;19.15;;;;;;;;;;4969489;28;21270;-73
2022/05/23 12:34:32;;;;;;;22.65;18.35;;;;;;;;;;4969980;28;20026;-73
2022/05/23 12:36:58;;;;;;;22.48;19.50;;;;;;;;;;4987615;28;20029;-73
2022/05/23 12:39:32;;;;;;;23.88;18.80;;;;;;;;;;4974281;28;20049;-73
2022/05/23 12:42:04;;;;;;;26.83;19.33;;;;;;;;;;4975426;28;20030;-74
2022/05/23 12:44:35;;;;;;;22.23;18.08;;;;;;;;;;4985663;28;20140;-74
2022/05/23 12:47:20;;;;;;;27.38;19.85;;;;;;;;;;4972017;28;20158;-75
2022/05/23 12:49:50;;;;;;;27.23;20.35;;;;;;;;;;4972299;28;20029;-74
2022/05/23 12:52:21;;;;;;;23.40;19.95;;;;;;;;;;4973633;28;20065;-74
2022/05/23 12:55:06;;;;;;;26.40;20.35;;;;;;;;;;4974021;28;20842;-73
2022/05/23 12:58:01;;;;;;;24.08;19.15;;;;;;;;;;4965799;28;20061;-75
2022/05/23 13:00:55;;;;;;;28.55;22.38;;;;;;;;;;4969457;28;20065;-76
2022/05/23 13:03:36;;;;;;;23.80;20.23;;;;;;;;;;4974906;28;20030;-73
2022/05/23 13:06:05;;;;;;;26.20;22.08;;;;;;;;;;4976979;28;20034;-74
2022/05/23 13:08:40;;;;;;;25.17;20.77;;;;;;;;;;4976228;28;20040;-75
2022/05/23 13:11:10;;;;;;;24.58;21.45;;;;;;;;;;4973642;28;20045;-74
2022/05/23 13:13:35;;;;;;;27.38;22.17;;;;;;;;;;4971057;28;20041;-75
2022/05/23 13:16:20;;;;;;;28.05;23.05;;;;;;;;;;4973935;28;20040;-76
2022/05/23 13:24:48;;;;;;;37.17;28.85;;;;;;;;;;4969500;28;20037;-76
2022/05/23 13:27:01;;;;;;;35.00;26.95;;;;;;;;;;4972295;28;20048;-73
2022/05/23 13:29:26;;;;;;;30.08;25.42;;;;;;;;;;4970511;28;20532;-76
2022/05/23 13:31:57;;;;;;;33.63;26.83;;;;;;;;;;4973107;28;20087;-73
2022/05/23 13:34:23;;;;;;;34.58;26.73;;;;;;;;;;4973584;28;20056;-73
2022/05/23 13:36:53;;;;;;;36.42;28.35;;;;;;;;;;4970482;28;20041;-71
2022/05/23 13:39:22;;;;;;;45.30;30.40;;;;;;;;;;4994789;28;20037;-74
2022/05/23 13:41:47;;;;;;;44.08;31.67;;;;;;;;;;4979116;28;20041;-75
2022/05/23 13:44:20;;;;;;;44.67;31.50;;;;;;;;;;4973581;28;20034;-77
2022/05/23 13:46:45;;;;;;;53.20;35.05;;;;;;;;;;4981957;28;20975;-78
2022/05/23 13:49:21;;;;;;;48.90;35.72;;;;;;;;;;4975556;28;20042;-80
2022/05/23 13:51:51;;;;;;;52.97;35.60;;;;;;;;;;4967882;28;20073;-71
2022/05/23 13:54:28;;;;;;;53.00;38.13;;;;;;;;;;4985273;28;20049;-73
2022/05/23 13:57:00;;;;;;;57.03;39.50;;;;;;;;;;4989295;28;22462;-73
2022/05/23 13:59:28;;;;;;;58.75;41.13;;;;;;;;;;4989578;28;20859;-74
2022/05/23 14:01:56;;;;;;;60.65;42.20;;;;;;;;;;4990067;28;20140;-76
2022/05/23 14:04:23;;;;;;;56.47;38.33;;;;;;;;;;4987651;28;20033;-73
2022/05/23 14:06:54;;;;;;;54.25;37.40;;;;;;;;;;5002147;28;20164;-73
2022/05/23 14:09:21;;;;;;;42.70;27.83;;;;;;;;;;4983730;28;20034;-73
2022/05/23 14:11:54;;;;;;;31.33;21.20;;;;;;;;;;4971450;28;20033;-73
2022/05/23 14:14:26;;;;;;;25.52;13.98;;;;;;;;;;4967599;28;20046;-75
2022/05/23 14:16:56;;;;;;;27.17;12.68;;;;;;;;;;4965228;28;20041;-72
2022/05/23 14:19:23;;;;;;;19.90;12.27;;;;;;;;;;4967620;28;20034;-71
2022/05/23 14:22:00;;;;;;;30.58;13.98;;;;;;;;;;4969008;28;20033;-71
2022/05/23 14:24:28;;;;;;;27.58;14.70;;;;;;;;;;4975365;28;20830;-70
2022/05/23 14:27:11;;;;;;;37.30;19.45;;;;;;;;;;4982246;28;20050;-72
2022/05/23 14:29:39;;;;;;;38.30;22.83;;;;;;;;;;4968595;28;20223;-72
2022/05/23 14:32:11;;;;;;;38.35;22.58;;;;;;;;;;4966725;28;20042;-73
2022/05/23 14:34:39;;;;;;;37.72;22.45;;;;;;;;;;4967296;28;20037;-73
2022/05/23 14:37:07;;;;;;;37.38;23.98;;;;;;;;;;4966796;28;20082;-73
2022/05/23 14:39:34;;;;;;;40.67;26.52;;;;;;;;;;4975016;28;20042;-72
2022/05/23 14:42:18;;;;;;;39.97;25.70;;;;;;;;;;4966138;28;20026;-72
2022/05/23 14:44:44;;;;;;;41.72;26.40;;;;;;;;;;4966277;28;20758;-71
2022/05/23 14:47:15;;;;;;;44.22;26.88;;;;;;;;;;4966697;28;20038;-71
2022/05/23 14:49:42;;;;;;;38.95;25.50;;;;;;;;;;4953693;28;20208;-72
2022/05/23 14:52:18;;;;;;;39.28;23.60;;;;;;;;;;4964366;28;20036;-71
2022/05/23 15:00:48;;;;;;;34.08;16.67;;;;;;;;;;4965445;28;20034;-71
2022/05/23 15:03:26;;;;;;;23.52;12.15;;;;;;;;;;4989003;28;20951;-71
2022/05/23 15:05:53;;;;;;;21.58;9.55;;;;;;;;;;4991719;28;20029;-72
2022/05/23 15:08:19;;;;;;;19.65;8.68;;;;;;;;;;4979316;28;20836;-71
2022/05/23 15:10:45;;;;;;;17.77;7.30;;;;;;;;;;5004195;28;20040;-70
2022/05/23 15:13:11;;;;;;;16.67;7.80;;;;;;;;;;4970757;28;20824;-69
2022/05/23 15:15:37;;;;;;;33.83;12.13;;;;;;;;;;4973974;28;20045;-70
2022/05/23 15:18:03;;;;;;;25.20;13.70;;;;;;;;;;4971298;28;20037;-71
2022/05/23 15:20:28;;;;;;;31.88;16.73;;;;;;;;;;4969239;28;20038;-70
2022/05/23 15:22:54;;;;;;;33.13;17.75;;;;;;;;;;4970641;28;20074;-71
2022/05/23 15:25:20;;;;;;;29.58;16.52;;;;;;;;;;4970519;28;20501;-72
2022/05/23 15:27:48;;;;;;;28.75;16.05;;;;;;;;;;4970795;28;20097;-72
2022/05/23 15:30:19;;;;;;;31.42;18.58;;;;;;;;;;4970672;28;20104;-73
2022/05/23 15:32:45;;;;;;;38.95;19.55;;;;;;;;;;4966506;28;20046;-74
2022/05/23 15:35:11;;;;;;;36.10;19.05;;;;;;;;;;4965761;28;20799;-73
2022/05/23 15:37:36;;;;;;;40.80;17.35;;;;;;;;;;4969086;28;20033;-72
2022/05/23 15:40:04;;;;;;;46.00;17.50;;;;;;;;;;4968069;28;20076;-74
2022/05/23 15:42:30;;;;;;;37.38;16.10;;;;;;;;;;4968401;28;20030;-74
2022/05/23 15:44:56;;;;;;;42.85;20.40;;;;;;;;;;4969780;28;20033;-72
2022/05/23 15:47:23;;;;;;;56.20;25.15;;;;;;;;;;4969791;28;20038;-73
2022/05/23 15:49:49;;;;;;;63.00;26.77;;;;;;;;;;4969735;28;21247;-73